createdAt,value
2023-01-27T00:01:09.421Z,11.13
2023-01-27T00:03:35.754Z,7.87
2023-01-27T00:06:02.199Z,9.53
2023-01-27T00:08:29.439Z,6.33
2023-01-27T00:11:17.896Z,8.57
2023-01-27T00:13:44.217Z,10.87
2023-01-27T00:16:10.622Z,13.33
2023-01-27T00:18:36.951Z,10.93
2023-01-27T00:21:22.153Z,13.33
2023-01-27T00:24:07.080Z,5.63
2023-01-27T00:26:33.389Z,10.77
2023-01-27T00:28:59.710Z,14.90
2023-01-27T00:31:44.562Z,10.90
2023-01-27T00:34:11.107Z,12.00
2023-01-27T00:36:38.606Z,8.07
2023-01-27T00:39:05.777Z,6.10
2023-01-27T00:41:33.985Z,15.50
2023-01-27T00:44:01.185Z,5.90
2023-01-27T00:46:27.739Z,3.80
2023-01-27T00:48:54.198Z,8.33
2023-01-27T00:51:20.860Z,9.67
2023-01-27T00:53:47.304Z,4.03
2023-01-27T00:56:13.663Z,9.07
2023-01-27T00:58:40.286Z,11.00
2023-01-27T01:01:07.963Z,6.17
2023-01-27T01:03:35.128Z,12.93
2023-01-27T01:06:03.216Z,6.73
2023-01-27T01:08:33.407Z,7.80
2023-01-27T01:10:59.678Z,5.37
2023-01-27T01:13:27.715Z,7.13
2023-01-27T01:15:54.435Z,8.73
2023-01-27T01:18:21.812Z,8.40
2023-01-27T01:20:48.167Z,7.87
2023-01-27T01:23:15.113Z,12.70
2023-01-27T01:25:41.583Z,11.60
2023-01-27T01:28:08.554Z,8.80
2023-01-27T01:30:35.668Z,13.03
2023-01-27T01:33:02.390Z,12.43
2023-01-27T01:35:28.753Z,6.33
2023-01-27T01:37:55.086Z,10.13
2023-01-27T01:40:24.624Z,8.57
2023-01-27T01:42:59.391Z,6.20
2023-01-27T01:45:31.866Z,5.37
2023-01-27T01:48:21.642Z,9.03
2023-01-27T01:50:50.832Z,7.27
2023-01-27T01:53:18.413Z,8.10
2023-01-27T01:55:45.767Z,3.63
2023-01-27T01:58:12.918Z,8.63
2023-01-27T02:00:39.899Z,4.97
2023-01-27T02:03:06.349Z,5.33
2023-01-27T02:05:34.740Z,4.57
2023-01-27T02:08:04.951Z,6.17
2023-01-27T02:10:33.026Z,6.53
2023-01-27T02:12:59.347Z,5.23
2023-01-27T02:15:25.941Z,3.50
2023-01-27T02:17:52.264Z,8.37
2023-01-27T02:20:38.890Z,4.73
2023-01-27T02:23:09.556Z,5.33
2023-01-27T02:25:35.831Z,7.83
2023-01-27T02:28:06.478Z,7.73
2023-01-27T02:30:33.259Z,9.07
2023-01-27T02:32:59.823Z,9.07
2023-01-27T02:35:31.915Z,7.17
2023-01-27T02:37:58.976Z,5.73
2023-01-27T02:40:25.996Z,9.97
2023-01-27T02:42:54.823Z,8.87
2023-01-27T02:45:21.117Z,8.27
2023-01-27T02:47:47.451Z,8.57
2023-01-27T02:50:13.830Z,8.30
2023-01-27T02:52:40.175Z,8.17
2023-01-27T02:55:06.849Z,8.33
2023-01-27T02:57:33.227Z,12.73
2023-01-27T02:59:59.547Z,11.50
2023-01-27T03:02:30.379Z,9.90
2023-01-27T03:04:57.635Z,10.23
2023-01-27T03:07:24.202Z,16.43
2023-01-27T03:09:50.491Z,11.97
2023-01-27T03:12:19.803Z,10.53
2023-01-27T03:15:05.385Z,11.77
2023-01-27T03:17:50.429Z,10.20
2023-01-27T03:20:17.038Z,11.40
2023-01-27T03:22:43.427Z,11.37
2023-01-27T03:25:10.189Z,9.03
2023-01-27T03:27:36.596Z,9.47
2023-01-27T03:30:03.971Z,9.60
2023-01-27T03:32:30.731Z,9.50
2023-01-27T03:34:57.764Z,9.93
2023-01-27T03:37:43.848Z,12.60
2023-01-27T03:40:29.072Z,7.20
2023-01-27T03:43:14.212Z,9.43
2023-01-27T03:46:01.606Z,6.87
2023-01-27T03:48:28.399Z,8.57
2023-01-27T03:51:01.399Z,8.07
2023-01-27T03:53:27.795Z,9.47
2023-01-27T03:55:54.125Z,12.77
2023-01-27T03:58:22.641Z,10.10
2023-01-27T04:00:53.296Z,9.03
2023-01-27T04:03:38.955Z,9.23
2023-01-27T04:06:25.131Z,8.20
2023-01-27T04:08:51.690Z,8.87
2023-01-27T04:11:36.793Z,10.83
2023-01-27T04:14:06.954Z,9.67
2023-01-27T04:16:34.423Z,11.20
2023-01-27T04:19:00.802Z,9.93
2023-01-27T04:21:27.178Z,11.33
2023-01-27T04:23:53.940Z,10.50
2023-01-27T04:26:20.665Z,8.13
2023-01-27T04:28:47.653Z,10.13
2023-01-27T04:31:15.579Z,7.27
2023-01-27T04:33:42.823Z,10.67
2023-01-27T04:36:09.414Z,12.17
2023-01-27T04:38:36.058Z,10.20
2023-01-27T04:41:02.387Z,7.40
2023-01-27T04:43:28.779Z,7.47
2023-01-27T04:45:55.406Z,7.80
2023-01-27T04:48:21.789Z,11.60
2023-01-27T04:50:48.108Z,7.17
2023-01-27T04:53:14.477Z,4.93
2023-01-27T04:55:42.051Z,6.03
2023-01-27T04:58:08.449Z,9.07
2023-01-27T05:00:34.797Z,4.40
2023-01-27T05:03:01.418Z,5.60
2023-01-27T05:05:27.844Z,3.83
2023-01-27T05:07:54.211Z,4.60
2023-01-27T05:10:20.952Z,7.13
2023-01-27T05:12:47.322Z,4.03
2023-01-27T05:15:15.052Z,6.73
2023-01-27T05:17:41.491Z,5.30
2023-01-27T05:20:08.105Z,4.47
2023-01-27T05:22:34.408Z,4.37
2023-01-27T05:25:00.703Z,5.20
2023-01-27T05:27:27.182Z,4.37
2023-01-27T05:29:53.515Z,4.17
2023-01-27T05:32:19.828Z,4.60
2023-01-27T05:34:46.173Z,4.60
2023-01-27T05:37:14.028Z,7.97
2023-01-27T05:39:40.461Z,4.13
2023-01-27T05:42:06.935Z,2.80
2023-01-27T05:44:33.371Z,3.37
2023-01-27T05:46:59.770Z,3.07
2023-01-27T05:49:26.077Z,3.70
2023-01-27T05:51:52.493Z,5.63
2023-01-27T05:54:18.825Z,3.20
2023-01-27T05:56:45.194Z,2.53
2023-01-27T05:59:11.868Z,3.50
2023-01-27T06:01:38.433Z,2.77
2023-01-27T06:04:04.856Z,1.83
2023-01-27T06:06:32.166Z,3.03
2023-01-27T06:08:58.746Z,2.73
2023-01-27T06:11:25.516Z,2.97
2023-01-27T06:13:52.529Z,1.90
2023-01-27T06:16:19.995Z,4.57
2023-01-27T06:18:47.225Z,4.37
2023-01-27T06:21:14.353Z,3.33
2023-01-27T06:23:40.670Z,2.97
2023-01-27T06:26:09.409Z,2.67
2023-01-27T06:28:36.418Z,2.63
2023-01-27T06:31:11.220Z,1.97
2023-01-27T06:33:38.010Z,3.17
2023-01-27T06:36:06.203Z,2.33
2023-01-27T06:38:32.752Z,3.27
2023-01-27T06:40:59.724Z,3.97
2023-01-27T06:43:26.074Z,4.43
2023-01-27T06:45:52.942Z,2.03
2023-01-27T06:48:19.379Z,3.67
2023-01-27T06:50:46.109Z,4.20
2023-01-27T06:53:12.459Z,2.97
2023-01-27T06:55:41.696Z,2.00
2023-01-27T06:58:09.170Z,3.20
2023-01-27T07:00:36.668Z,2.60
2023-01-27T07:03:03.331Z,2.67
2023-01-27T07:05:29.763Z,4.37
2023-01-27T07:07:56.165Z,6.00
2023-01-27T07:10:22.467Z,3.13
2023-01-27T07:12:48.812Z,4.30
2023-01-27T07:15:15.140Z,5.33
2023-01-27T07:17:41.817Z,5.27
2023-01-27T07:20:11.763Z,2.13
2023-01-27T07:22:38.815Z,2.37
2023-01-27T07:25:06.463Z,8.80
2023-01-27T07:27:32.919Z,2.70
2023-01-27T07:29:59.222Z,2.63
2023-01-27T07:32:27.391Z,6.27
2023-01-27T07:34:54.766Z,2.87
2023-01-27T07:37:21.055Z,2.63
2023-01-27T07:39:48.327Z,4.57
2023-01-27T07:42:14.658Z,1.83
2023-01-27T07:44:40.972Z,2.63
2023-01-27T07:47:07.293Z,3.47
2023-01-27T07:49:33.655Z,4.20
2023-01-27T07:52:00.011Z,5.23
2023-01-27T07:54:26.433Z,2.20
2023-01-27T07:56:52.721Z,4.90
2023-01-27T07:59:20.240Z,4.10
2023-01-27T08:01:48.207Z,5.13
2023-01-27T08:04:14.754Z,4.13
2023-01-27T08:06:41.137Z,1.37
2023-01-27T08:09:07.475Z,3.47
2023-01-27T08:11:34.284Z,6.10
2023-01-27T08:14:00.676Z,4.60
2023-01-27T08:16:27.379Z,5.57
2023-01-27T08:18:54.436Z,7.97
2023-01-27T08:21:22.983Z,3.37
2023-01-27T08:23:49.385Z,4.63
2023-01-27T08:26:15.757Z,2.03
2023-01-27T08:28:42.240Z,5.17
2023-01-27T08:31:10.391Z,4.70
2023-01-27T08:33:36.999Z,2.13
2023-01-27T08:36:08.126Z,3.53
2023-01-27T08:38:37.505Z,4.10
2023-01-27T08:41:05.239Z,2.30
2023-01-27T08:43:31.914Z,2.67
2023-01-27T08:46:00.340Z,2.37
2023-01-27T08:48:30.321Z,5.37
2023-01-27T08:50:57.006Z,2.87
2023-01-27T08:53:24.200Z,2.07
2023-01-27T08:55:51.206Z,3.23
2023-01-27T08:58:17.665Z,6.67
2023-01-27T09:00:44.023Z,6.53
2023-01-27T09:03:10.343Z,3.07
2023-01-27T09:05:37.139Z,2.73
2023-01-27T09:08:03.949Z,1.50
2023-01-27T09:10:31.553Z,3.67
2023-01-27T09:12:58.017Z,3.40
2023-01-27T09:15:24.664Z,4.13
2023-01-27T09:17:51.077Z,1.50
2023-01-27T09:20:17.507Z,3.57
2023-01-27T09:22:44.097Z,2.57
2023-01-27T09:25:13.656Z,2.37
2023-01-27T09:27:40.418Z,2.70
2023-01-27T09:30:07.172Z,2.60
2023-01-27T09:32:33.561Z,3.53
2023-01-27T09:34:59.917Z,6.90
2023-01-27T09:37:27.912Z,3.60
2023-01-27T09:40:02.234Z,4.67
2023-01-27T09:42:45.763Z,3.23
2023-01-27T09:45:24.176Z,3.00
2023-01-27T09:48:05.136Z,2.63
2023-01-27T09:50:31.487Z,3.20
2023-01-27T09:52:58.291Z,3.27
2023-01-27T09:55:41.938Z,2.60
2023-01-27T09:58:34.431Z,4.97
2023-01-27T10:01:09.170Z,1.03
2023-01-27T10:03:39.361Z,3.67
2023-01-27T10:06:08.760Z,5.07
2023-01-27T10:08:52.875Z,1.63
2023-01-27T10:11:21.979Z,4.47
2023-01-27T10:13:58.129Z,1.33
2023-01-27T10:16:52.084Z,1.63
2023-01-27T10:19:27.688Z,1.80
2023-01-27T10:22:05.293Z,3.23
2023-01-27T10:24:31.706Z,3.63
2023-01-27T10:27:08.809Z,1.77
2023-01-27T10:29:39.983Z,5.57
2023-01-27T10:32:06.313Z,2.27
2023-01-27T10:34:55.842Z,1.20
2023-01-27T10:37:22.125Z,2.10
2023-01-27T10:39:51.657Z,3.50
2023-01-27T10:42:40.281Z,2.63
2023-01-27T10:45:12.786Z,1.43
2023-01-27T10:47:57.312Z,5.17
2023-01-27T10:50:28.597Z,2.23
2023-01-27T10:53:01.934Z,2.87
2023-01-27T10:56:01.045Z,1.27
2023-01-27T10:58:45.967Z,2.80
2023-01-27T11:01:20.904Z,2.77
2023-01-27T11:03:51.524Z,1.97
2023-01-27T11:06:20.818Z,1.97
2023-01-27T11:08:49.599Z,1.83
2023-01-27T11:11:35.712Z,3.17
2023-01-27T11:14:04.695Z,1.67
2023-01-27T11:16:36.745Z,2.87
2023-01-27T11:19:23.516Z,2.33
2023-01-27T11:22:06.309Z,1.50
2023-01-27T11:24:42.303Z,2.87
2023-01-27T11:27:34.835Z,0.80
2023-01-27T11:30:04.196Z,0.93
2023-01-27T11:32:41.851Z,0.93
2023-01-27T11:35:08.151Z,0.70
2023-01-27T11:37:35.488Z,3.47
2023-01-27T11:40:02.425Z,2.57
2023-01-27T11:42:33.532Z,0.63
2023-01-27T11:45:00.797Z,0.77
2023-01-27T11:47:32.083Z,2.73
2023-01-27T11:50:00.421Z,0.83
2023-01-27T11:52:28.965Z,1.37
2023-01-27T11:55:13.778Z,1.80
2023-01-27T11:57:45.752Z,0.90
2023-01-27T12:00:37.775Z,0.97
2023-01-27T12:03:20.383Z,1.67
2023-01-27T12:05:48.916Z,0.87
2023-01-27T12:08:35.180Z,0.93
2023-01-27T12:11:16.709Z,0.70
2023-01-27T12:13:58.264Z,2.47
2023-01-27T12:16:26.765Z,4.33
2023-01-27T12:19:03.370Z,1.73
2023-01-27T12:21:38.071Z,0.90
2023-01-27T12:24:05.329Z,0.67
2023-01-27T12:26:36.711Z,0.40
2023-01-27T12:29:06.379Z,0.60
2023-01-27T12:31:42.584Z,0.57
2023-01-27T12:34:17.149Z,0.40
2023-01-27T12:36:44.135Z,0.40
2023-01-27T12:39:25.771Z,0.50
2023-01-27T12:41:52.253Z,0.70
2023-01-27T12:44:20.580Z,0.90
2023-01-27T12:46:55.960Z,0.73
2023-01-27T12:49:22.721Z,0.70
2023-01-27T12:51:54.672Z,0.60
2023-01-27T12:54:22.477Z,0.87
2023-01-27T12:56:50.001Z,1.10
2023-01-27T12:59:17.579Z,0.80
2023-01-27T13:01:47.088Z,0.73
2023-01-27T13:04:21.579Z,0.53
2023-01-27T13:06:49.533Z,0.50
2023-01-27T13:09:21.855Z,0.40
2023-01-27T13:11:48.146Z,0.70
2023-01-27T13:14:16.561Z,1.87
2023-01-27T13:16:52.594Z,1.10
2023-01-27T13:19:19.178Z,1.40
2023-01-27T13:21:48.292Z,1.10
2023-01-27T13:24:19.463Z,0.57
2023-01-27T13:26:46.354Z,0.40
2023-01-27T13:29:16.063Z,0.50
2023-01-27T13:31:49.421Z,1.27
2023-01-27T13:34:21.281Z,0.70
2023-01-27T13:36:51.697Z,1.10
2023-01-27T13:39:23.878Z,0.80
2023-01-27T13:42:09.819Z,1.00
2023-01-27T13:44:42.117Z,2.83
2023-01-27T13:47:28.668Z,1.70
2023-01-27T13:49:55.066Z,0.83
2023-01-27T13:52:21.535Z,0.83
2023-01-27T13:54:48.027Z,0.60
2023-01-27T13:57:20.223Z,0.77
2023-01-27T14:00:00.517Z,0.60
2023-01-27T14:02:45.250Z,0.43
2023-01-27T14:05:11.593Z,0.70
2023-01-27T14:07:40.879Z,1.23
2023-01-27T14:10:33.954Z,1.23
2023-01-27T14:13:03.369Z,0.73
2023-01-27T14:15:29.965Z,1.33
2023-01-27T14:18:09.962Z,2.40
2023-01-27T14:20:46.936Z,1.20
2023-01-27T14:23:17.855Z,4.20
2023-01-27T14:26:03.316Z,0.90
2023-01-27T14:28:30.920Z,0.93
2023-01-27T14:31:06.389Z,1.57
2023-01-27T14:33:43.059Z,2.20
2023-01-27T14:36:23.653Z,1.90
2023-01-27T14:39:12.041Z,1.30
2023-01-27T14:41:58.326Z,1.33
2023-01-27T14:44:33.939Z,2.60
2023-01-27T14:47:13.640Z,3.33
2023-01-27T14:49:59.044Z,0.80
2023-01-27T14:52:28.389Z,1.00
2023-01-27T14:55:08.255Z,1.20
2023-01-27T14:57:41.771Z,1.20
2023-01-27T15:00:26.934Z,1.53
2023-01-27T15:03:11.768Z,2.37
2023-01-27T15:05:50.313Z,1.97
2023-01-27T15:08:24.456Z,1.90
2023-01-27T15:11:10.721Z,1.40
2023-01-27T15:13:57.341Z,1.00
2023-01-27T15:16:38.076Z,2.50
2023-01-27T15:19:04.601Z,2.50
2023-01-27T15:21:38.650Z,2.07
2023-01-27T15:24:04.975Z,1.67
2023-01-27T15:26:32.070Z,2.77
2023-01-27T15:28:58.694Z,1.90
2023-01-27T15:31:26.809Z,2.53
2023-01-27T15:34:02.179Z,4.57
2023-01-27T15:36:29.135Z,2.17
2023-01-27T15:39:15.375Z,3.87
2023-01-27T15:41:52.459Z,5.03
2023-01-27T15:44:25.902Z,2.13
2023-01-27T15:46:53.775Z,4.10
2023-01-27T15:49:24.837Z,1.60
2023-01-27T15:51:52.495Z,1.83
2023-01-27T15:54:22.301Z,4.40
2023-01-27T15:56:50.441Z,1.67
2023-01-27T15:59:42.121Z,2.70
2023-01-27T16:02:15.736Z,3.47
2023-01-27T16:04:42.285Z,4.77
2023-01-27T16:07:20.207Z,1.93
2023-01-27T16:09:48.803Z,2.27
2023-01-27T16:12:24.382Z,2.90
2023-01-27T16:15:10.730Z,2.33
2023-01-27T16:17:56.305Z,1.37
2023-01-27T16:20:28.275Z,2.33
2023-01-27T16:23:13.613Z,3.00
2023-01-27T16:25:40.051Z,3.23
2023-01-27T16:28:26.596Z,1.77
2023-01-27T16:31:16.257Z,1.20
2023-01-27T16:33:44.390Z,1.50
2023-01-27T16:36:29.175Z,1.70
2023-01-27T16:38:57.459Z,2.10
2023-01-27T16:41:28.414Z,1.10
2023-01-27T16:44:01.861Z,1.23
2023-01-27T16:46:33.051Z,1.60
2023-01-27T16:49:01.403Z,1.50
2023-01-27T16:51:29.059Z,1.40
2023-01-27T16:53:57.304Z,2.57
2023-01-27T16:56:23.649Z,3.47
2023-01-27T16:58:51.258Z,1.83
2023-01-27T17:01:20.330Z,2.83
2023-01-27T17:03:46.950Z,1.57
2023-01-27T17:06:17.239Z,2.13
2023-01-27T17:08:44.993Z,2.83
2023-01-27T17:11:20.578Z,1.87
2023-01-27T17:13:56.522Z,4.03
2023-01-27T17:16:31.353Z,2.87
2023-01-27T17:19:04.886Z,3.53
2023-01-27T17:21:42.215Z,3.13
2023-01-27T17:24:15.993Z,3.20
2023-01-27T17:26:43.334Z,4.70
2023-01-27T17:29:14.170Z,2.83
2023-01-27T17:31:41.099Z,2.63
2023-01-27T17:34:13.203Z,2.40
2023-01-27T17:36:59.453Z,3.63
2023-01-27T17:39:26.374Z,2.83
2023-01-27T17:41:55.385Z,1.70
2023-01-27T17:44:21.704Z,2.33
2023-01-27T17:46:48.023Z,3.57
2023-01-27T17:49:16.188Z,2.37
2023-01-27T17:51:46.981Z,1.70
2023-01-27T17:54:21.679Z,1.63
2023-01-27T17:56:48.963Z,3.20
2023-01-27T17:59:17.608Z,2.80
2023-01-27T18:01:44.322Z,5.87
2023-01-27T18:04:11.070Z,3.03
2023-01-27T18:06:38.317Z,4.57
2023-01-27T18:09:15.708Z,2.83
2023-01-27T18:11:51.068Z,2.77
2023-01-27T18:14:18.370Z,4.00
2023-01-27T18:16:45.838Z,2.93
2023-01-27T18:19:20.684Z,6.40
2023-01-27T18:21:47.081Z,2.13
2023-01-27T18:24:20.721Z,3.23
2023-01-27T18:26:47.612Z,2.43
2023-01-27T18:29:13.966Z,4.03
2023-01-27T18:31:49.583Z,3.53
2023-01-27T18:34:25.987Z,2.63
2023-01-27T18:36:54.254Z,3.97
2023-01-27T18:39:26.576Z,4.30
2023-01-27T18:41:54.283Z,3.50
2023-01-27T18:44:27.128Z,3.20
2023-01-27T18:46:55.481Z,2.77
2023-01-27T18:49:23.035Z,3.70
2023-01-27T18:51:49.356Z,3.67
2023-01-27T18:54:15.708Z,3.17
2023-01-27T18:56:42.007Z,3.50
2023-01-27T18:59:13.361Z,3.20
2023-01-27T19:01:39.674Z,3.20
2023-01-27T19:04:09.917Z,3.40
2023-01-27T19:06:36.222Z,5.37
2023-01-27T19:09:04.658Z,3.80
2023-01-27T19:11:32.835Z,4.00
2023-01-27T19:13:59.974Z,4.73
2023-01-27T19:16:27.268Z,3.80
2023-01-27T19:18:55.251Z,3.93
2023-01-27T19:21:21.756Z,3.93
2023-01-27T19:23:49.471Z,5.97
2023-01-27T19:26:17.515Z,4.63
2023-01-27T19:28:44.268Z,3.10
2023-01-27T19:31:10.770Z,4.50
2023-01-27T19:33:38.497Z,5.10
2023-01-27T19:36:16.702Z,4.80
2023-01-27T19:38:43.143Z,5.80
2023-01-27T19:41:10.971Z,4.30
2023-01-27T19:43:37.351Z,4.37
2023-01-27T19:46:11.234Z,6.50
2023-01-27T19:48:37.631Z,5.63
2023-01-27T19:51:04.020Z,7.17
2023-01-27T19:53:30.349Z,5.67
2023-01-27T19:55:58.904Z,6.37
2023-01-27T19:58:26.752Z,5.37
2023-01-27T20:00:53.997Z,6.73
2023-01-27T20:03:20.652Z,8.67
2023-01-27T20:05:47.067Z,6.00
2023-01-27T20:08:17.376Z,7.33
2023-01-27T20:10:43.696Z,5.17
2023-01-27T20:13:12.816Z,7.23
2023-01-27T20:15:40.986Z,7.73
2023-01-27T20:18:08.171Z,9.50
2023-01-27T20:20:34.529Z,6.43
2023-01-27T20:23:00.831Z,5.43
2023-01-27T20:25:27.929Z,7.13
2023-01-27T20:27:55.407Z,7.83
2023-01-27T20:30:23.166Z,8.83
2023-01-27T20:32:49.504Z,8.40
2023-01-27T20:35:16.808Z,6.50
2023-01-27T20:37:43.679Z,7.37
2023-01-27T20:40:12.702Z,8.50
2023-01-27T20:42:38.975Z,9.20
2023-01-27T20:45:05.484Z,9.30
2023-01-27T20:47:32.875Z,8.63
2023-01-27T20:49:59.211Z,11.47
2023-01-27T20:52:25.607Z,9.40
2023-01-27T20:54:52.786Z,8.40
2023-01-27T20:57:20.859Z,11.27
2023-01-27T20:59:47.495Z,9.17
2023-01-27T21:02:14.524Z,9.53
2023-01-27T21:04:40.945Z,9.00
2023-01-27T21:07:07.863Z,10.40
2023-01-27T21:09:34.727Z,8.47
2023-01-27T21:12:01.032Z,10.40
2023-01-27T21:14:27.402Z,10.33
2023-01-27T21:16:53.819Z,9.63
2023-01-27T21:19:20.263Z,11.70
2023-01-27T21:21:47.136Z,9.27
2023-01-27T21:24:13.491Z,8.40
2023-01-27T21:26:39.827Z,10.30
2023-01-27T21:29:06.488Z,11.07
2023-01-27T21:31:32.927Z,9.70
2023-01-27T21:33:59.711Z,8.87
2023-01-27T21:36:27.449Z,11.83
2023-01-27T21:38:54.151Z,12.80
2023-01-27T21:41:57.592Z,10.27
2023-01-27T21:44:43.845Z,10.80
2023-01-27T21:47:11.576Z,12.63
2023-01-27T21:49:57.648Z,9.70
2023-01-27T21:52:24.962Z,14.23
2023-01-27T21:54:51.649Z,10.00
2023-01-27T21:57:18.161Z,10.23
2023-01-27T21:59:44.993Z,9.53
2023-01-27T22:02:12.533Z,10.97
2023-01-27T22:04:42.538Z,9.63
2023-01-27T22:07:10.113Z,12.57
2023-01-27T22:09:37.143Z,12.57
2023-01-27T22:12:04.213Z,9.90
2023-01-27T22:14:30.637Z,12.50
2023-01-27T22:16:56.972Z,10.67
2023-01-27T22:19:23.399Z,10.70
2023-01-27T22:21:49.864Z,13.60
2023-01-27T22:24:17.497Z,11.50
2023-01-27T22:26:44.259Z,9.77
2023-01-27T22:29:12.892Z,10.53
2023-01-27T22:31:41.899Z,10.03
2023-01-27T22:34:11.503Z,11.70
2023-01-27T22:36:38.852Z,10.87
2023-01-27T22:39:05.264Z,9.07
2023-01-27T22:41:32.074Z,10.40
2023-01-27T22:43:58.521Z,10.93
2023-01-27T22:46:25.169Z,9.03
2023-01-27T22:48:51.502Z,8.33
2023-01-27T22:51:18.091Z,9.93
2023-01-27T22:53:44.482Z,10.43
2023-01-27T22:56:10.842Z,9.27
2023-01-27T22:58:37.152Z,8.23
2023-01-27T23:01:07.108Z,8.07
2023-01-27T23:03:33.857Z,10.80
2023-01-27T23:06:04.203Z,10.20
2023-01-27T23:08:32.476Z,10.13
2023-01-27T23:11:03.343Z,11.00
2023-01-27T23:13:31.121Z,8.67
2023-01-27T23:15:59.484Z,11.30
2023-01-27T23:18:25.827Z,11.33
2023-01-27T23:20:52.160Z,11.43
2023-01-27T23:23:19.297Z,11.33
2023-01-27T23:25:46.346Z,10.50
2023-01-27T23:28:13.536Z,9.90
2023-01-27T23:30:43.366Z,10.43
2023-01-27T23:33:10.847Z,11.43
2023-01-27T23:35:37.214Z,9.37
2023-01-27T23:38:03.644Z,8.50
2023-01-27T23:40:31.514Z,10.20
2023-01-27T23:42:57.831Z,9.80
2023-01-27T23:45:24.188Z,11.10
2023-01-27T23:47:50.483Z,8.90
2023-01-27T23:50:16.943Z,6.60
2023-01-27T23:52:43.254Z,7.13
2023-01-27T23:55:10.284Z,7.23
2023-01-27T23:57:36.596Z,4.97
